sensor_id;sensor_type;location;lat;lon;timestamp;P1;durP1;ratioP1;P2;durP2;ratioP2
72413;SDS011;60995;52.154;4.498;2024-02-16T00:01:52;7.97;;;3.00;;
72413;SDS011;60995;52.154;4.498;2024-02-16T00:04:08;9.63;;;3.38;;
72413;SDS011;60995;52.154;4.498;2024-02-16T00:06:24;8.20;;;2.78;;
72413;SDS011;60995;52.154;4.498;2024-02-16T00:08:41;8.43;;;3.20;;
72413;SDS011;60995;52.154;4.498;2024-02-16T00:10:57;10.10;;;3.10;;
72413;SDS011;60995;52.154;4.498;2024-02-16T00:13:14;7.43;;;2.90;;
72413;SDS011;60995;52.154;4.498;2024-02-16T00:15:31;10.48;;;3.40;;
72413;SDS011;60995;52.154;4.498;2024-02-16T00:17:47;6.45;;;2.65;;
72413;SDS011;60995;52.154;4.498;2024-02-16T00:20:04;8.63;;;3.10;;
72413;SDS011;60995;52.154;4.498;2024-02-16T00:22:23;7.13;;;2.90;;
72413;SDS011;60995;52.154;4.498;2024-02-16T00:24:39;8.35;;;3.28;;
72413;SDS011;60995;52.154;4.498;2024-02-16T00:26:56;6.70;;;2.70;;
72413;SDS011;60995;52.154;4.498;2024-02-16T00:29:12;9.48;;;3.17;;
72413;SDS011;60995;52.154;4.498;2024-02-16T00:31:28;14.27;;;6.57;;
72413;SDS011;60995;52.154;4.498;2024-02-16T00:33:46;8.05;;;3.65;;
72413;SDS011;60995;52.154;4.498;2024-02-16T00:36:02;8.52;;;3.10;;
72413;SDS011;60995;52.154;4.498;2024-02-16T00:38:18;7.95;;;3.13;;
72413;SDS011;60995;52.154;4.498;2024-02-16T00:40:34;8.35;;;2.90;;
72413;SDS011;60995;52.154;4.498;2024-02-16T00:42:51;11.43;;;4.15;;
72413;SDS011;60995;52.154;4.498;2024-02-16T00:45:07;7.78;;;2.55;;
72413;SDS011;60995;52.154;4.498;2024-02-16T00:47:24;9.15;;;2.88;;
72413;SDS011;60995;52.154;4.498;2024-02-16T00:49:42;9.45;;;3.47;;
72413;SDS011;60995;52.154;4.498;2024-02-16T00:51:59;8.95;;;3.40;;
72413;SDS011;60995;52.154;4.498;2024-02-16T00:54:17;8.27;;;3.17;;
72413;SDS011;60995;52.154;4.498;2024-02-16T00:56:33;9.63;;;3.45;;
72413;SDS011;60995;52.154;4.498;2024-02-16T00:58:49;7.15;;;2.83;;
72413;SDS011;60995;52.154;4.498;2024-02-16T01:01:06;9.52;;;3.45;;
72413;SDS011;60995;52.154;4.498;2024-02-16T01:03:26;7.82;;;3.20;;
72413;SDS011;60995;52.154;4.498;2024-02-16T01:05:42;8.38;;;2.83;;
72413;SDS011;60995;52.154;4.498;2024-02-16T01:07:58;11.88;;;3.95;;
72413;SDS011;60995;52.154;4.498;2024-02-16T01:10:14;8.32;;;3.22;;
72413;SDS011;60995;52.154;4.498;2024-02-16T01:12:31;7.50;;;2.83;;
72413;SDS011;60995;52.154;4.498;2024-02-16T01:14:47;7.65;;;3.38;;
72413;SDS011;60995;52.154;4.498;2024-02-16T01:17:03;7.38;;;3.25;;
72413;SDS011;60995;52.154;4.498;2024-02-16T01:19:19;10.52;;;3.50;;
72413;SDS011;60995;52.154;4.498;2024-02-16T01:21:36;11.43;;;4.63;;
72413;SDS011;60995;52.154;4.498;2024-02-16T01:23:52;9.30;;;3.30;;
72413;SDS011;60995;52.154;4.498;2024-02-16T01:26:09;10.15;;;3.30;;
72413;SDS011;60995;52.154;4.498;2024-02-16T01:28:25;7.35;;;3.13;;
72413;SDS011;60995;52.154;4.498;2024-02-16T01:30:41;6.50;;;3.10;;
72413;SDS011;60995;52.154;4.498;2024-02-16T01:32:58;10.48;;;4.10;;
72413;SDS011;60995;52.154;4.498;2024-02-16T01:35:14;9.05;;;3.55;;
72413;SDS011;60995;52.154;4.498;2024-02-16T01:37:30;7.97;;;3.50;;
72413;SDS011;60995;52.154;4.498;2024-02-16T01:39:47;9.38;;;3.30;;
72413;SDS011;60995;52.154;4.498;2024-02-16T01:42:03;9.45;;;3.65;;
72413;SDS011;60995;52.154;4.498;2024-02-16T01:44:20;13.85;;;5.50;;
72413;SDS011;60995;52.154;4.498;2024-02-16T01:46:36;11.38;;;3.88;;
72413;SDS011;60995;52.154;4.498;2024-02-16T01:48:52;10.02;;;3.58;;
72413;SDS011;60995;52.154;4.498;2024-02-16T01:51:10;9.32;;;3.65;;
72413;SDS011;60995;52.154;4.498;2024-02-16T01:53:27;8.77;;;3.95;;
72413;SDS011;60995;52.154;4.498;2024-02-16T01:55:48;6.53;;;2.90;;
72413;SDS011;60995;52.154;4.498;2024-02-16T01:58:06;9.35;;;3.63;;
72413;SDS011;60995;52.154;4.498;2024-02-16T02:00:23;9.80;;;3.50;;
72413;SDS011;60995;52.154;4.498;2024-02-16T02:02:40;7.57;;;3.53;;
72413;SDS011;60995;52.154;4.498;2024-02-16T02:04:59;9.13;;;4.00;;
72413;SDS011;60995;52.154;4.498;2024-02-16T02:07:16;11.60;;;3.50;;
72413;SDS011;60995;52.154;4.498;2024-02-16T02:09:32;7.40;;;3.60;;
72413;SDS011;60995;52.154;4.498;2024-02-16T02:11:49;9.43;;;3.92;;
72413;SDS011;60995;52.154;4.498;2024-02-16T02:14:05;9.07;;;3.75;;
72413;SDS011;60995;52.154;4.498;2024-02-16T02:16:21;9.50;;;3.80;;
72413;SDS011;60995;52.154;4.498;2024-02-16T02:18:39;9.40;;;3.95;;
72413;SDS011;60995;52.154;4.498;2024-02-16T02:20:55;12.65;;;4.70;;
72413;SDS011;60995;52.154;4.498;2024-02-16T02:23:11;11.27;;;4.00;;
72413;SDS011;60995;52.154;4.498;2024-02-16T02:25:28;8.13;;;3.78;;
72413;SDS011;60995;52.154;4.498;2024-02-16T02:27:44;8.43;;;3.95;;
72413;SDS011;60995;52.154;4.498;2024-02-16T02:30:01;8.75;;;3.53;;
72413;SDS011;60995;52.154;4.498;2024-02-16T02:32:17;9.95;;;3.78;;
72413;SDS011;60995;52.154;4.498;2024-02-16T02:34:34;9.45;;;4.18;;
72413;SDS011;60995;52.154;4.498;2024-02-16T02:36:52;9.00;;;3.58;;
72413;SDS011;60995;52.154;4.498;2024-02-16T02:39:08;8.95;;;3.90;;
72413;SDS011;60995;52.154;4.498;2024-02-16T02:41:24;10.88;;;4.20;;
72413;SDS011;60995;52.154;4.498;2024-02-16T02:43:40;8.25;;;3.72;;
72413;SDS011;60995;52.154;4.498;2024-02-16T02:45:57;9.05;;;4.20;;
72413;SDS011;60995;52.154;4.498;2024-02-16T02:48:13;8.73;;;3.92;;
72413;SDS011;60995;52.154;4.498;2024-02-16T02:50:30;10.13;;;4.00;;
72413;SDS011;60995;52.154;4.498;2024-02-16T02:52:47;8.55;;;3.90;;
72413;SDS011;60995;52.154;4.498;2024-02-16T02:55:04;11.38;;;4.40;;
72413;SDS011;60995;52.154;4.498;2024-02-16T02:57:20;9.13;;;4.32;;
72413;SDS011;60995;52.154;4.498;2024-02-16T02:59:37;9.85;;;3.88;;
72413;SDS011;60995;52.154;4.498;2024-02-16T03:01:53;9.55;;;4.55;;
72413;SDS011;60995;52.154;4.498;2024-02-16T03:04:09;10.73;;;4.25;;
72413;SDS011;60995;52.154;4.498;2024-02-16T03:06:25;8.00;;;3.90;;
72413;SDS011;60995;52.154;4.498;2024-02-16T03:08:43;11.35;;;4.40;;
72413;SDS011;60995;52.154;4.498;2024-02-16T03:11:00;10.10;;;4.30;;
72413;SDS011;60995;52.154;4.498;2024-02-16T03:13:16;9.80;;;4.47;;
72413;SDS011;60995;52.154;4.498;2024-02-16T03:15:34;8.63;;;4.13;;
72413;SDS011;60995;52.154;4.498;2024-02-16T03:17:53;9.50;;;4.43;;
72413;SDS011;60995;52.154;4.498;2024-02-16T03:20:09;10.35;;;4.05;;
72413;SDS011;60995;52.154;4.498;2024-02-16T03:22:26;10.23;;;4.13;;
72413;SDS011;60995;52.154;4.498;2024-02-16T03:24:43;7.75;;;3.47;;
72413;SDS011;60995;52.154;4.498;2024-02-16T03:27:00;7.60;;;3.78;;
72413;SDS011;60995;52.154;4.498;2024-02-16T03:29:16;9.02;;;4.10;;
72413;SDS011;60995;52.154;4.498;2024-02-16T03:31:33;7.85;;;4.30;;
72413;SDS011;60995;52.154;4.498;2024-02-16T03:33:50;9.93;;;4.05;;
72413;SDS011;60995;52.154;4.498;2024-02-16T03:36:07;12.00;;;4.20;;
72413;SDS011;60995;52.154;4.498;2024-02-16T03:38:23;9.25;;;3.72;;
72413;SDS011;60995;52.154;4.498;2024-02-16T03:40:40;11.23;;;4.07;;
72413;SDS011;60995;52.154;4.498;2024-02-16T03:42:56;7.43;;;3.65;;
72413;SDS011;60995;52.154;4.498;2024-02-16T03:45:13;9.43;;;3.78;;
72413;SDS011;60995;52.154;4.498;2024-02-16T03:47:30;8.13;;;3.97;;
72413;SDS011;60995;52.154;4.498;2024-02-16T03:49:46;10.27;;;3.58;;
72413;SDS011;60995;52.154;4.498;2024-02-16T03:52:02;7.68;;;3.45;;
72413;SDS011;60995;52.154;4.498;2024-02-16T03:54:19;9.73;;;3.55;;
72413;SDS011;60995;52.154;4.498;2024-02-16T03:56:35;9.13;;;3.75;;
72413;SDS011;60995;52.154;4.498;2024-02-16T03:58:51;9.00;;;3.42;;
72413;SDS011;60995;52.154;4.498;2024-02-16T04:01:08;7.60;;;3.97;;
72413;SDS011;60995;52.154;4.498;2024-02-16T04:03:24;8.52;;;3.58;;
72413;SDS011;60995;52.154;4.498;2024-02-16T04:05:41;9.50;;;3.50;;
72413;SDS011;60995;52.154;4.498;2024-02-16T04:07:57;7.03;;;3.33;;
72413;SDS011;60995;52.154;4.498;2024-02-16T04:10:17;8.48;;;3.50;;
72413;SDS011;60995;52.154;4.498;2024-02-16T04:12:33;8.02;;;3.28;;
72413;SDS011;60995;52.154;4.498;2024-02-16T04:14:49;8.02;;;3.10;;
72413;SDS011;60995;52.154;4.498;2024-02-16T04:17:06;10.63;;;3.38;;
72413;SDS011;60995;52.154;4.498;2024-02-16T04:19:22;9.18;;;3.78;;
72413;SDS011;60995;52.154;4.498;2024-02-16T04:21:38;10.20;;;3.30;;
72413;SDS011;60995;52.154;4.498;2024-02-16T04:23:54;8.63;;;4.00;;
72413;SDS011;60995;52.154;4.498;2024-02-16T04:26:11;8.35;;;3.53;;
72413;SDS011;60995;52.154;4.498;2024-02-16T04:28:27;8.68;;;3.28;;
72413;SDS011;60995;52.154;4.498;2024-02-16T04:30:44;7.70;;;3.25;;
72413;SDS011;60995;52.154;4.498;2024-02-16T04:33:03;10.80;;;4.40;;
72413;SDS011;60995;52.154;4.498;2024-02-16T04:35:20;9.15;;;3.92;;
72413;SDS011;60995;52.154;4.498;2024-02-16T04:37:36;9.65;;;4.72;;
72413;SDS011;60995;52.154;4.498;2024-02-16T04:39:52;8.88;;;4.03;;
72413;SDS011;60995;52.154;4.498;2024-02-16T04:42:11;8.80;;;3.83;;
72413;SDS011;60995;52.154;4.498;2024-02-16T04:44:28;8.05;;;3.28;;
72413;SDS011;60995;52.154;4.498;2024-02-16T04:46:44;8.60;;;3.33;;
72413;SDS011;60995;52.154;4.498;2024-02-16T04:49:01;8.07;;;3.58;;
72413;SDS011;60995;52.154;4.498;2024-02-16T04:51:17;12.85;;;4.00;;
72413;SDS011;60995;52.154;4.498;2024-02-16T04:53:33;8.40;;;3.92;;
72413;SDS011;60995;52.154;4.498;2024-02-16T04:55:49;10.10;;;4.10;;
72413;SDS011;60995;52.154;4.498;2024-02-16T04:58:05;8.82;;;3.53;;
72413;SDS011;60995;52.154;4.498;2024-02-16T05:00:25;10.45;;;3.45;;
72413;SDS011;60995;52.154;4.498;2024-02-16T05:02:41;8.45;;;4.00;;
72413;SDS011;60995;52.154;4.498;2024-02-16T05:04:57;9.95;;;4.05;;
72413;SDS011;60995;52.154;4.498;2024-02-16T05:07:14;8.88;;;4.00;;
72413;SDS011;60995;52.154;4.498;2024-02-16T05:09:34;8.80;;;3.55;;
72413;SDS011;60995;52.154;4.498;2024-02-16T05:11:50;10.38;;;3.85;;
72413;SDS011;60995;52.154;4.498;2024-02-16T05:14:07;9.02;;;4.10;;
72413;SDS011;60995;52.154;4.498;2024-02-16T05:16:23;9.02;;;3.95;;
72413;SDS011;60995;52.154;4.498;2024-02-16T05:18:40;8.27;;;3.70;;
72413;SDS011;60995;52.154;4.498;2024-02-16T05:20:56;11.95;;;4.78;;
72413;SDS011;60995;52.154;4.498;2024-02-16T05:23:13;8.90;;;3.88;;
72413;SDS011;60995;52.154;4.498;2024-02-16T05:25:29;9.30;;;3.63;;
72413;SDS011;60995;52.154;4.498;2024-02-16T05:27:46;9.45;;;3.95;;
72413;SDS011;60995;52.154;4.498;2024-02-16T05:30:04;11.02;;;3.90;;
72413;SDS011;60995;52.154;4.498;2024-02-16T05:32:23;9.55;;;3.72;;
72413;SDS011;60995;52.154;4.498;2024-02-16T05:34:39;8.63;;;3.83;;
72413;SDS011;60995;52.154;4.498;2024-02-16T05:36:56;9.70;;;3.65;;
72413;SDS011;60995;52.154;4.498;2024-02-16T05:39:12;12.25;;;4.32;;
72413;SDS011;60995;52.154;4.498;2024-02-16T05:41:42;10.05;;;3.88;;
72413;SDS011;60995;52.154;4.498;2024-02-16T05:43:58;10.23;;;4.15;;
72413;SDS011;60995;52.154;4.498;2024-02-16T05:46:15;9.85;;;4.25;;
72413;SDS011;60995;52.154;4.498;2024-02-16T05:48:35;10.80;;;4.03;;
72413;SDS011;60995;52.154;4.498;2024-02-16T05:51:01;10.40;;;4.33;;
72413;SDS011;60995;52.154;4.498;2024-02-16T05:53:18;10.23;;;4.10;;
72413;SDS011;60995;52.154;4.498;2024-02-16T05:55:34;9.85;;;4.10;;
72413;SDS011;60995;52.154;4.498;2024-02-16T05:57:50;15.75;;;3.92;;
72413;SDS011;60995;52.154;4.498;2024-02-16T06:00:09;12.00;;;4.50;;
72413;SDS011;60995;52.154;4.498;2024-02-16T06:02:26;11.05;;;4.30;;
72413;SDS011;60995;52.154;4.498;2024-02-16T06:04:43;9.65;;;4.00;;
72413;SDS011;60995;52.154;4.498;2024-02-16T06:06:59;9.63;;;4.05;;
72413;SDS011;60995;52.154;4.498;2024-02-16T06:09:15;11.57;;;4.63;;
72413;SDS011;60995;52.154;4.498;2024-02-16T06:11:31;14.25;;;4.32;;
72413;SDS011;60995;52.154;4.498;2024-02-16T06:13:48;12.20;;;4.93;;
72413;SDS011;60995;52.154;4.498;2024-02-16T06:16:05;11.05;;;4.68;;
72413;SDS011;60995;52.154;4.498;2024-02-16T06:18:25;13.02;;;4.78;;
72413;SDS011;60995;52.154;4.498;2024-02-16T06:20:45;10.13;;;4.60;;
72413;SDS011;60995;52.154;4.498;2024-02-16T06:23:01;11.20;;;4.40;;
72413;SDS011;60995;52.154;4.498;2024-02-16T06:25:18;13.98;;;4.70;;
72413;SDS011;60995;52.154;4.498;2024-02-16T06:27:37;9.77;;;4.13;;
72413;SDS011;60995;52.154;4.498;2024-02-16T06:29:53;12.00;;;4.22;;
72413;SDS011;60995;52.154;4.498;2024-02-16T06:32:09;8.68;;;4.18;;
72413;SDS011;60995;52.154;4.498;2024-02-16T06:34:28;8.95;;;4.30;;
72413;SDS011;60995;52.154;4.498;2024-02-16T06:36:45;12.57;;;4.40;;
72413;SDS011;60995;52.154;4.498;2024-02-16T06:39:02;11.35;;;5.28;;
72413;SDS011;60995;52.154;4.498;2024-02-16T06:41:18;10.52;;;4.80;;
72413;SDS011;60995;52.154;4.498;2024-02-16T06:43:35;11.52;;;4.75;;
72413;SDS011;60995;52.154;4.498;2024-02-16T06:45:51;11.88;;;4.55;;
72413;SDS011;60995;52.154;4.498;2024-02-16T06:48:07;11.75;;;4.65;;
72413;SDS011;60995;52.154;4.498;2024-02-16T06:50:24;8.57;;;4.05;;
72413;SDS011;60995;52.154;4.498;2024-02-16T06:52:40;10.88;;;4.32;;
72413;SDS011;60995;52.154;4.498;2024-02-16T06:54:57;11.50;;;4.57;;
72413;SDS011;60995;52.154;4.498;2024-02-16T06:57:13;13.15;;;4.63;;
72413;SDS011;60995;52.154;4.498;2024-02-16T06:59:29;9.93;;;4.40;;
72413;SDS011;60995;52.154;4.498;2024-02-16T07:01:46;10.05;;;4.35;;
72413;SDS011;60995;52.154;4.498;2024-02-16T07:04:04;10.15;;;3.85;;
72413;SDS011;60995;52.154;4.498;2024-02-16T07:06:21;10.07;;;4.32;;
72413;SDS011;60995;52.154;4.498;2024-02-16T07:08:37;11.73;;;4.28;;
72413;SDS011;60995;52.154;4.498;2024-02-16T07:10:54;9.70;;;4.68;;
72413;SDS011;60995;52.154;4.498;2024-02-16T07:13:11;10.88;;;4.57;;
72413;SDS011;60995;52.154;4.498;2024-02-16T07:15:27;12.18;;;4.25;;
72413;SDS011;60995;52.154;4.498;2024-02-16T07:17:43;10.02;;;4.47;;
72413;SDS011;60995;52.154;4.498;2024-02-16T07:20:00;10.98;;;4.25;;
72413;SDS011;60995;52.154;4.498;2024-02-16T07:22:19;13.40;;;4.32;;
72413;SDS011;60995;52.154;4.498;2024-02-16T07:24:35;11.85;;;4.85;;
72413;SDS011;60995;52.154;4.498;2024-02-16T07:26:51;12.80;;;4.75;;
72413;SDS011;60995;52.154;4.498;2024-02-16T07:29:10;11.35;;;4.78;;
72413;SDS011;60995;52.154;4.498;2024-02-16T07:31:32;11.85;;;4.57;;
72413;SDS011;60995;52.154;4.498;2024-02-16T07:33:50;9.57;;;4.15;;
72413;SDS011;60995;52.154;4.498;2024-02-16T07:36:06;9.45;;;4.78;;
72413;SDS011;60995;52.154;4.498;2024-02-16T07:38:23;10.52;;;4.55;;
72413;SDS011;60995;52.154;4.498;2024-02-16T07:40:39;10.38;;;4.15;;
72413;SDS011;60995;52.154;4.498;2024-02-16T07:42:55;10.30;;;4.32;;
72413;SDS011;60995;52.154;4.498;2024-02-16T07:45:12;12.02;;;4.38;;
72413;SDS011;60995;52.154;4.498;2024-02-16T07:47:29;10.82;;;4.53;;
72413;SDS011;60995;52.154;4.498;2024-02-16T07:49:45;10.48;;;4.95;;
72413;SDS011;60995;52.154;4.498;2024-02-16T07:52:02;13.48;;;4.43;;
72413;SDS011;60995;52.154;4.498;2024-02-16T07:54:18;9.85;;;4.40;;
72413;SDS011;60995;52.154;4.498;2024-02-16T07:56:34;10.10;;;4.55;;
72413;SDS011;60995;52.154;4.498;2024-02-16T07:58:51;10.55;;;4.40;;
72413;SDS011;60995;52.154;4.498;2024-02-16T08:01:07;10.02;;;4.35;;
72413;SDS011;60995;52.154;4.498;2024-02-16T08:03:24;11.75;;;4.10;;
72413;SDS011;60995;52.154;4.498;2024-02-16T08:05:40;14.93;;;4.60;;
72413;SDS011;60995;52.154;4.498;2024-02-16T08:07:56;8.85;;;4.38;;
72413;SDS011;60995;52.154;4.498;2024-02-16T08:10:13;11.32;;;4.78;;
72413;SDS011;60995;52.154;4.498;2024-02-16T08:12:29;10.90;;;4.15;;
72413;SDS011;60995;52.154;4.498;2024-02-16T08:14:47;11.40;;;4.50;;
72413;SDS011;60995;52.154;4.498;2024-02-16T08:17:03;12.07;;;4.70;;
72413;SDS011;60995;52.154;4.498;2024-02-16T08:19:20;12.70;;;4.72;;
72413;SDS011;60995;52.154;4.498;2024-02-16T08:21:36;14.45;;;5.22;;
72413;SDS011;60995;52.154;4.498;2024-02-16T08:23:52;9.38;;;4.38;;
72413;SDS011;60995;52.154;4.498;2024-02-16T08:26:08;11.40;;;4.28;;
72413;SDS011;60995;52.154;4.498;2024-02-16T08:28:25;10.65;;;4.60;;
72413;SDS011;60995;52.154;4.498;2024-02-16T08:30:41;12.82;;;4.38;;
72413;SDS011;60995;52.154;4.498;2024-02-16T08:32:59;11.73;;;4.82;;
72413;SDS011;60995;52.154;4.498;2024-02-16T08:35:16;14.13;;;4.78;;
72413;SDS011;60995;52.154;4.498;2024-02-16T08:37:34;14.55;;;4.72;;
72413;SDS011;60995;52.154;4.498;2024-02-16T08:39:50;11.57;;;4.47;;
72413;SDS011;60995;52.154;4.498;2024-02-16T08:42:07;10.35;;;5.00;;
72413;SDS011;60995;52.154;4.498;2024-02-16T08:44:30;9.93;;;5.28;;
72413;SDS011;60995;52.154;4.498;2024-02-16T08:46:46;13.70;;;5.63;;
72413;SDS011;60995;52.154;4.498;2024-02-16T08:49:04;11.88;;;4.68;;
72413;SDS011;60995;52.154;4.498;2024-02-16T08:51:21;11.73;;;5.43;;
72413;SDS011;60995;52.154;4.498;2024-02-16T08:53:39;11.77;;;5.13;;
72413;SDS011;60995;52.154;4.498;2024-02-16T08:55:55;11.63;;;5.20;;
72413;SDS011;60995;52.154;4.498;2024-02-16T08:58:12;12.15;;;5.43;;
72413;SDS011;60995;52.154;4.498;2024-02-16T09:00:29;12.00;;;5.22;;
72413;SDS011;60995;52.154;4.498;2024-02-16T09:02:46;11.57;;;5.47;;
72413;SDS011;60995;52.154;4.498;2024-02-16T09:05:02;14.63;;;5.53;;
72413;SDS011;60995;52.154;4.498;2024-02-16T09:07:25;14.07;;;5.22;;
72413;SDS011;60995;52.154;4.498;2024-02-16T09:09:41;19.40;;;7.88;;
72413;SDS011;60995;52.154;4.498;2024-02-16T09:11:59;18.67;;;8.20;;
72413;SDS011;60995;52.154;4.498;2024-02-16T09:14:15;22.02;;;9.18;;
72413;SDS011;60995;52.154;4.498;2024-02-16T09:16:32;30.00;;;10.70;;
72413;SDS011;60995;52.154;4.498;2024-02-16T09:18:48;25.40;;;10.57;;
72413;SDS011;60995;52.154;4.498;2024-02-16T09:21:05;30.73;;;10.55;;
72413;SDS011;60995;52.154;4.498;2024-02-16T09:23:22;32.72;;;11.15;;
72413;SDS011;60995;52.154;4.498;2024-02-16T09:25:38;32.28;;;10.77;;
72413;SDS011;60995;52.154;4.498;2024-02-16T09:27:56;36.95;;;13.13;;
72413;SDS011;60995;52.154;4.498;2024-02-16T09:30:12;35.00;;;12.60;;
72413;SDS011;60995;52.154;4.498;2024-02-16T09:32:29;42.15;;;12.40;;
72413;SDS011;60995;52.154;4.498;2024-02-16T09:34:45;41.35;;;13.95;;
72413;SDS011;60995;52.154;4.498;2024-02-16T09:37:01;43.88;;;14.27;;
72413;SDS011;60995;52.154;4.498;2024-02-16T09:39:19;40.53;;;13.00;;
72413;SDS011;60995;52.154;4.498;2024-02-16T09:41:35;44.47;;;12.98;;
72413;SDS011;60995;52.154;4.498;2024-02-16T09:43:52;38.70;;;14.13;;
72413;SDS011;60995;52.154;4.498;2024-02-16T09:46:10;44.15;;;13.30;;
72413;SDS011;60995;52.154;4.498;2024-02-16T09:48:27;131.60;;;20.90;;
72413;SDS011;60995;52.154;4.498;2024-02-16T09:50:45;43.65;;;14.63;;
72413;SDS011;60995;52.154;4.498;2024-02-16T09:53:02;43.95;;;13.02;;
72413;SDS011;60995;52.154;4.498;2024-02-16T09:55:21;50.67;;;14.45;;
72413;SDS011;60995;52.154;4.498;2024-02-16T09:57:38;41.55;;;13.05;;
72413;SDS011;60995;52.154;4.498;2024-02-16T09:59:54;40.42;;;12.85;;
72413;SDS011;60995;52.154;4.498;2024-02-16T10:02:10;37.70;;;13.13;;
72413;SDS011;60995;52.154;4.498;2024-02-16T10:04:27;39.17;;;12.07;;
72413;SDS011;60995;52.154;4.498;2024-02-16T10:06:46;39.30;;;12.07;;
72413;SDS011;60995;52.154;4.498;2024-02-16T10:09:04;29.95;;;11.18;;
72413;SDS011;60995;52.154;4.498;2024-02-16T10:11:22;29.02;;;11.00;;
72413;SDS011;60995;52.154;4.498;2024-02-16T10:13:58;25.48;;;10.40;;
72413;SDS011;60995;52.154;4.498;2024-02-16T10:16:19;25.38;;;9.52;;
72413;SDS011;60995;52.154;4.498;2024-02-16T10:18:36;25.02;;;9.95;;
72413;SDS011;60995;52.154;4.498;2024-02-16T10:20:53;21.23;;;9.07;;
72413;SDS011;60995;52.154;4.498;2024-02-16T10:23:09;24.60;;;10.38;;
72413;SDS011;60995;52.154;4.498;2024-02-16T10:25:27;21.98;;;9.68;;
72413;SDS011;60995;52.154;4.498;2024-02-16T10:27:45;24.85;;;9.95;;
72413;SDS011;60995;52.154;4.498;2024-02-16T10:30:03;24.67;;;10.27;;
72413;SDS011;60995;52.154;4.498;2024-02-16T10:32:26;21.27;;;9.32;;
72413;SDS011;60995;52.154;4.498;2024-02-16T10:34:42;22.25;;;10.40;;
72413;SDS011;60995;52.154;4.498;2024-02-16T10:37:01;26.80;;;10.77;;
72413;SDS011;60995;52.154;4.498;2024-02-16T10:39:19;26.98;;;11.38;;
72413;SDS011;60995;52.154;4.498;2024-02-16T10:41:37;32.45;;;11.82;;
72413;SDS011;60995;52.154;4.498;2024-02-16T10:43:57;29.88;;;10.57;;
72413;SDS011;60995;52.154;4.498;2024-02-16T10:46:17;27.95;;;10.57;;
72413;SDS011;60995;52.154;4.498;2024-02-16T10:48:33;24.38;;;10.25;;
72413;SDS011;60995;52.154;4.498;2024-02-16T10:50:50;27.05;;;10.13;;
72413;SDS011;60995;52.154;4.498;2024-02-16T10:53:14;26.63;;;10.00;;
72413;SDS011;60995;52.154;4.498;2024-02-16T10:55:37;21.08;;;9.73;;
72413;SDS011;60995;52.154;4.498;2024-02-16T10:57:56;24.13;;;9.82;;
72413;SDS011;60995;52.154;4.498;2024-02-16T11:00:13;20.52;;;9.55;;
72413;SDS011;60995;52.154;4.498;2024-02-16T11:02:33;23.55;;;9.35;;
72413;SDS011;60995;52.154;4.498;2024-02-16T11:04:49;23.17;;;8.85;;
72413;SDS011;60995;52.154;4.498;2024-02-16T11:07:13;24.15;;;8.15;;
72413;SDS011;60995;52.154;4.498;2024-02-16T11:09:36;20.25;;;8.10;;
72413;SDS011;60995;52.154;4.498;2024-02-16T11:14:18;15.18;;;7.55;;
72413;SDS011;60995;52.154;4.498;2024-02-16T11:16:43;20.65;;;7.63;;
72413;SDS011;60995;52.154;4.498;2024-02-16T11:19:01;15.25;;;6.90;;
72413;SDS011;60995;52.154;4.498;2024-02-16T11:21:20;15.65;;;6.90;;
72413;SDS011;60995;52.154;4.498;2024-02-16T11:23:37;16.33;;;6.43;;
72413;SDS011;60995;52.154;4.498;2024-02-16T11:26:05;15.23;;;6.13;;
72413;SDS011;60995;52.154;4.498;2024-02-16T11:28:31;20.42;;;6.70;;
72413;SDS011;60995;52.154;4.498;2024-02-16T11:30:49;17.38;;;7.30;;
72413;SDS011;60995;52.154;4.498;2024-02-16T11:33:10;22.42;;;8.05;;
72413;SDS011;60995;52.154;4.498;2024-02-16T11:35:26;12.73;;;5.60;;
72413;SDS011;60995;52.154;4.498;2024-02-16T11:37:43;15.63;;;5.93;;
72413;SDS011;60995;52.154;4.498;2024-02-16T11:40:01;14.82;;;5.68;;
72413;SDS011;60995;52.154;4.498;2024-02-16T11:42:19;19.20;;;5.82;;
72413;SDS011;60995;52.154;4.498;2024-02-16T11:44:36;14.98;;;5.80;;
72413;SDS011;60995;52.154;4.498;2024-02-16T11:47:06;14.43;;;5.90;;
72413;SDS011;60995;52.154;4.498;2024-02-16T11:49:31;13.00;;;5.50;;
72413;SDS011;60995;52.154;4.498;2024-02-16T11:51:47;16.63;;;5.97;;
72413;SDS011;60995;52.154;4.498;2024-02-16T11:54:04;16.58;;;5.18;;
72413;SDS011;60995;52.154;4.498;2024-02-16T11:56:21;21.27;;;5.82;;
72413;SDS011;60995;52.154;4.498;2024-02-16T11:58:40;16.90;;;4.60;;
72413;SDS011;60995;52.154;4.498;2024-02-16T12:00:56;13.23;;;4.50;;
72413;SDS011;60995;52.154;4.498;2024-02-16T12:03:25;23.27;;;5.10;;
72413;SDS011;60995;52.154;4.498;2024-02-16T12:05:49;18.33;;;4.63;;
72413;SDS011;60995;52.154;4.498;2024-02-16T12:08:10;15.20;;;4.60;;
72413;SDS011;60995;52.154;4.498;2024-02-16T12:10:26;14.75;;;5.18;;
72413;SDS011;60995;52.154;4.498;2024-02-16T12:12:44;14.93;;;4.35;;
72413;SDS011;60995;52.154;4.498;2024-02-16T12:15:01;161.18;;;15.70;;
72413;SDS011;60995;52.154;4.498;2024-02-16T12:17:20;50.42;;;7.07;;
72413;SDS011;60995;52.154;4.498;2024-02-16T12:19:36;33.92;;;6.78;;
72413;SDS011;60995;52.154;4.498;2024-02-16T12:21:54;17.25;;;5.57;;
72413;SDS011;60995;52.154;4.498;2024-02-16T12:24:14;235.77;;;16.70;;
72413;SDS011;60995;52.154;4.498;2024-02-16T12:26:30;18.52;;;6.30;;
72413;SDS011;60995;52.154;4.498;2024-02-16T12:28:47;37.95;;;6.80;;
72413;SDS011;60995;52.154;4.498;2024-02-16T12:31:04;20.20;;;6.05;;
72413;SDS011;60995;52.154;4.498;2024-02-16T12:33:21;16.42;;;5.30;;
72413;SDS011;60995;52.154;4.498;2024-02-16T12:35:38;15.25;;;5.93;;
72413;SDS011;60995;52.154;4.498;2024-02-16T12:37:54;16.75;;;5.63;;
72413;SDS011;60995;52.154;4.498;2024-02-16T12:40:10;13.50;;;5.75;;
72413;SDS011;60995;52.154;4.498;2024-02-16T12:42:27;20.75;;;6.25;;
72413;SDS011;60995;52.154;4.498;2024-02-16T12:44:43;13.38;;;5.85;;
72413;SDS011;60995;52.154;4.498;2024-02-16T12:46:59;17.60;;;6.32;;
72413;SDS011;60995;52.154;4.498;2024-02-16T12:49:16;16.85;;;6.15;;
72413;SDS011;60995;52.154;4.498;2024-02-16T12:51:32;14.68;;;5.57;;
72413;SDS011;60995;52.154;4.498;2024-02-16T12:53:49;18.75;;;6.47;;
72413;SDS011;60995;52.154;4.498;2024-02-16T12:56:05;12.98;;;5.75;;
72413;SDS011;60995;52.154;4.498;2024-02-16T12:58:24;14.15;;;5.50;;
72413;SDS011;60995;52.154;4.498;2024-02-16T13:00:40;13.18;;;5.30;;
72413;SDS011;60995;52.154;4.498;2024-02-16T13:02:56;15.15;;;5.72;;
72413;SDS011;60995;52.154;4.498;2024-02-16T13:05:12;12.27;;;4.75;;
72413;SDS011;60995;52.154;4.498;2024-02-16T13:07:29;14.35;;;4.47;;
72413;SDS011;60995;52.154;4.498;2024-02-16T13:09:45;13.68;;;4.93;;
72413;SDS011;60995;52.154;4.498;2024-02-16T13:12:01;20.50;;;9.55;;
72413;SDS011;60995;52.154;4.498;2024-02-16T13:14:18;16.20;;;7.10;;
72413;SDS011;60995;52.154;4.498;2024-02-16T13:16:35;9.90;;;4.70;;
72413;SDS011;60995;52.154;4.498;2024-02-16T13:18:51;13.93;;;5.47;;
72413;SDS011;60995;52.154;4.498;2024-02-16T13:21:07;12.98;;;5.35;;
72413;SDS011;60995;52.154;4.498;2024-02-16T13:23:23;10.90;;;5.18;;
72413;SDS011;60995;52.154;4.498;2024-02-16T13:25:40;12.88;;;5.90;;
72413;SDS011;60995;52.154;4.498;2024-02-16T13:27:56;13.45;;;5.60;;
72413;SDS011;60995;52.154;4.498;2024-02-16T13:30:13;14.45;;;5.93;;
72413;SDS011;60995;52.154;4.498;2024-02-16T13:32:29;12.35;;;5.85;;
72413;SDS011;60995;52.154;4.498;2024-02-16T13:34:45;13.68;;;6.05;;
72413;SDS011;60995;52.154;4.498;2024-02-16T13:37:01;12.23;;;5.80;;
72413;SDS011;60995;52.154;4.498;2024-02-16T13:39:18;12.88;;;5.95;;
72413;SDS011;60995;52.154;4.498;2024-02-16T13:41:35;14.77;;;5.63;;